CheckWX is a tool to help pilots better visualize weather data.  It is not intended as a substitute for an official pre-flight weather briefing.

16:54:56 UTC

ENGC METAR
Gullfax Platform Airport
Norway
Current

35 mins ago

ENGC 051620Z 18040KT 7000 NSC 08/06 Q1011 W06/S5
Observed
Apr-5 @ 16:20 UTC
Wind
  • 180° at 40 KTS
Visibility
7001 meters
Flight Rules
MVFR
Cloud Levels
  • Clear skies
Temperature
C / 46°F
Dewpoint
C / 43°F
Humidity
87%
Altimeter
29.85" Hg
Pressure
1010.92 hPa
Previous

1 hour ago

ENGC 051550Z 18039KT 8000 NSC 08/06 Q1012 W06/S5
Observed
Apr-5 @ 15:50 UTC
Wind
  • 180° at 39 KTS
Visibility
7998 meters
Flight Rules
MVFR
Cloud Levels
  • Clear skies
Temperature
C / 46°F
Dewpoint
C / 43°F
Humidity
87%
Altimeter
29.88" Hg
Pressure
1011.92 hPa
Previous

2 hours ago

ENGC 051520Z 18038KT 9000 NSC 08/06 Q1012 W06/S5
Observed
Apr-5 @ 15:20 UTC
Wind
  • 180° at 38 KTS
Visibility
8996 meters
Flight Rules
VFR
Cloud Levels
  • Clear skies
Temperature
C / 46°F
Dewpoint
C / 43°F
Humidity
87%
Altimeter
29.88" Hg
Pressure
1011.92 hPa